Terminal Aerodrome Forecast
Issued by NWS Blacksburg, VA

Home | Current Version | Previous Version | Text Only | Print | Product List | Glossary On
Versions: 1 2 3 4 5 6 7 8 9 10 11 12 13
000
FTUS41 KRNK 281150
TAFLYH
TAF
KLYH 281150Z 2812/0112 00000KT P6SM SCT090
     FM281600 20006KT P6SM SCT250
     FM281800 20008KT P6SM BKN090
     FM282200 20005KT P6SM VCSH OVC050
     FM010000 20004KT P6SM SCT008 OVC030
     FM010300 21005KT 5SM -RA BR OVC008
     FM010800 21004KT 3SM -DZ BR OVC003 WS020/22040KT=

USA.gov is the U.S. government's official web portal to all federal, state and local government web resources and services.